Time;durP1;ratioP1;P1;durP2;ratioP2;P2;SDS_P1;SDS_P2;PMS_P1;PMS_P2;Temp;Humidity;BMP_temperature;BMP_pressure;BME280_temperature;BME280_humidity;BME280_pressure;Samples;Min_cycle;Max_cycle;Signal;HPM_P1;HPM_P2
2021/12/17 00:07:11;;;;;;;42.60;27.27;;;5.20;99.90;;;;;;4993485;28;20100;-78
2021/12/17 00:09:39;;;;;;;44.80;27.10;;;5.20;99.90;;;;;;4993258;28;20117;-77
2021/12/17 00:12:09;;;;;;;43.28;26.55;;;5.20;99.90;;;;;;4993081;28;20570;-78
2021/12/17 00:14:38;;;;;;;42.88;27.08;;;5.20;99.90;;;;;;4993469;28;20058;-78
2021/12/17 00:17:08;;;;;;;37.58;25.17;;;5.20;99.90;;;;;;4990189;28;20476;-77
2021/12/17 00:48:21;;;;;;;35.88;23.10;;;5.20;99.90;;;;;;4972198;28;20041;-78
2021/12/17 00:49:32;;;;;;;36.60;23.42;;;5.20;99.90;;;;;;4972495;28;20499;-77
2021/12/17 00:52:00;;;;;;;42.83;26.58;;;5.30;99.90;;;;;;4972363;28;20432;-78
2021/12/17 00:54:40;;;;;;;40.28;26.23;;;5.20;99.90;;;;;;4985697;28;20049;-77
2021/12/17 00:57:06;;;;;;;43.55;25.17;;;5.30;99.90;;;;;;4974082;28;20034;-76
2021/12/17 00:59:32;;;;;;;36.35;23.05;;;5.20;99.90;;;;;;4989365;28;20025;-78
2021/12/17 01:02:01;;;;;;;42.95;26.05;;;5.30;99.90;;;;;;4992212;28;20472;-78
2021/12/17 01:04:26;;;;;;;40.90;25.17;;;5.20;99.90;;;;;;4991837;28;20058;-76
2021/12/17 01:06:53;;;;;;;38.17;25.05;;;5.20;99.90;;;;;;5001378;28;20078;-78
2021/12/17 01:09:23;;;;;;;41.00;24.80;;;5.20;99.90;;;;;;4987148;28;20112;-77
2021/12/17 01:11:50;;;;;;;40.90;25.77;;;5.20;99.90;;;;;;4990279;28;20026;-76
2021/12/17 01:14:36;;;;;;;39.17;25.33;;;5.20;99.90;;;;;;4990377;28;20358;-76
2021/12/17 01:17:41;;;;;;;35.35;24.75;;;5.30;99.90;;;;;;4980240;28;20096;-76
2021/12/17 01:35:29;;;;;;;38.17;22.10;;;5.30;99.90;;;;;;4993053;28;20069;-77
2021/12/17 01:43:36;;;;;;;35.75;23.05;;;5.30;99.90;;;;;;4994114;28;20058;-77
2021/12/17 01:46:05;;;;;;;36.80;23.08;;;5.30;99.90;;;;;;4958207;28;20042;-78
2021/12/17 01:48:52;;;;;;;38.70;24.17;;;5.30;99.90;;;;;;4967678;28;20035;-78
2021/12/17 01:56:57;;;;;;;30.48;21.85;;;5.30;99.90;;;;;;4994632;28;20030;-78
2021/12/17 01:59:38;;;;;;;33.17;21.65;;;5.30;99.90;;;;;;4993221;28;20030;-77
2021/12/17 02:02:08;;;;;;;36.58;23.35;;;5.30;99.90;;;;;;5010203;28;20093;-78
2021/12/17 02:04:38;;;;;;;36.10;23.58;;;5.30;99.90;;;;;;4995737;28;20033;-77
2021/12/17 02:07:05;;;;;;;35.08;22.50;;;5.30;99.90;;;;;;4993610;28;20117;-78
2021/12/17 02:31:34;;;;;;;37.28;22.58;;;5.30;99.90;;;;;;4991740;28;20137;-77
2021/12/17 02:34:07;;;;;;;34.10;23.10;;;5.30;99.90;;;;;;4975481;28;20351;-78
2021/12/17 02:36:35;;;;;;;33.47;22.70;;;5.30;99.90;;;;;;4988328;28;20027;-78
2021/12/17 02:39:43;;;;;;;31.05;21.55;;;5.40;99.90;;;;;;4993364;28;20033;-78
2021/12/17 02:47:21;;;;;;;33.90;22.77;;;5.40;99.90;;;;;;4982196;28;20480;-78
2021/12/17 02:49:48;;;;;;;32.88;21.05;;;5.40;99.90;;;;;;4984630;28;20030;-77
2021/12/17 02:52:15;;;;;;;36.05;22.77;;;5.40;99.90;;;;;;4985078;28;20116;-77
2021/12/17 02:54:42;;;;;;;32.22;20.58;;;5.40;99.90;;;;;;4982833;28;20033;-79
2021/12/17 02:57:11;;;;;;;31.85;20.63;;;5.40;99.90;;;;;;4981560;28;20042;-77
2021/12/17 02:59:38;;;;;;;37.65;22.85;;;5.50;99.90;;;;;;4982007;28;20050;-77
2021/12/17 03:02:07;;;;;;;33.35;21.25;;;5.40;99.90;;;;;;4983570;28;20088;-75
2021/12/17 03:04:35;;;;;;;31.80;21.98;;;5.40;99.90;;;;;;4986097;28;20026;-78
2021/12/17 03:07:01;;;;;;;32.13;21.65;;;5.40;99.90;;;;;;4981909;28;20536;-78
2021/12/17 03:12:18;;;;;;;31.05;20.75;;;5.40;99.90;;;;;;4985980;28;20149;-78
2021/12/17 03:14:53;;;;;;;32.67;19.92;;;5.40;99.90;;;;;;4983158;28;20022;-77
2021/12/17 03:17:35;;;;;;;34.20;22.92;;;5.40;99.90;;;;;;4984246;28;20548;-77
2021/12/17 03:25:30;;;;;;;31.88;21.67;;;5.40;99.90;;;;;;4998655;28;20026;-78
2021/12/17 03:27:56;;;;;;;34.65;20.35;;;5.40;99.90;;;;;;4982610;28;20396;-75
2021/12/17 03:30:22;;;;;;;30.85;19.88;;;5.40;99.90;;;;;;4996107;28;20393;-76
2021/12/17 03:32:48;;;;;;;32.03;21.35;;;5.40;99.90;;;;;;4985012;28;20023;-77
2021/12/17 03:35:14;;;;;;;34.03;22.77;;;5.40;99.90;;;;;;4980291;28;20503;-78
2021/12/17 03:37:40;;;;;;;32.92;22.15;;;5.50;99.90;;;;;;4984454;28;20101;-78
2021/12/17 03:40:06;;;;;;;34.88;20.70;;;5.50;99.90;;;;;;4986410;28;20361;-77
2021/12/17 03:42:33;;;;;;;29.15;19.05;;;5.50;99.90;;;;;;4969372;28;20548;-77
2021/12/17 03:45:00;;;;;;;29.40;20.08;;;5.50;99.90;;;;;;4990010;28;20177;-77
2021/12/17 03:47:51;;;;;;;33.83;22.08;;;5.50;99.90;;;;;;4988073;28;20045;-76
2021/12/17 03:50:22;;;;;;;30.30;19.70;;;5.60;99.90;;;;;;4985754;28;20061;-77
2021/12/17 03:52:49;;;;;;;32.90;20.95;;;5.50;99.90;;;;;;4990576;28;20030;-78
2021/12/17 03:55:16;;;;;;;35.90;21.85;;;5.60;99.90;;;;;;4990118;28;20037;-77
2021/12/17 03:57:47;;;;;;;30.33;19.25;;;5.50;99.90;;;;;;4990455;28;20412;-77
2021/12/17 04:00:13;;;;;;;31.95;20.83;;;5.50;99.90;;;;;;4989928;28;20038;-78
2021/12/17 04:02:51;;;;;;;36.20;22.33;;;5.50;99.90;;;;;;4990302;28;20038;-77
2021/12/17 04:05:37;;;;;;;34.28;22.92;;;5.50;99.90;;;;;;4990497;28;20035;-77
2021/12/17 04:08:38;;;;;;;31.48;21.05;;;5.50;99.90;;;;;;4989685;28;20053;-77
2021/12/17 04:11:22;;;;;;;33.22;22.35;;;5.50;99.90;;;;;;4991840;28;20061;-77
2021/12/17 04:14:00;;;;;;;33.95;21.92;;;5.40;99.90;;;;;;4990786;28;20038;-78
2021/12/17 04:16:32;;;;;;;34.08;22.90;;;5.40;99.90;;;;;;4994401;28;20036;-79
2021/12/17 04:18:59;;;;;;;31.92;22.58;;;5.40;99.90;;;;;;4996053;28;20392;-78
2021/12/17 04:21:29;;;;;;;38.03;25.25;;;5.40;99.90;;;;;;5001528;28;20053;-79
2021/12/17 04:23:55;;;;;;;34.67;22.95;;;5.40;99.90;;;;;;5003373;28;20031;-77
2021/12/17 04:26:23;;;;;;;34.65;23.90;;;5.40;99.90;;;;;;5002890;28;20030;-77
2021/12/17 04:28:55;;;;;;;30.80;22.05;;;5.40;99.90;;;;;;4997666;28;20034;-77
2021/12/17 04:31:27;;;;;;;35.78;24.52;;;5.50;99.90;;;;;;4992016;28;20058;-77
2021/12/17 04:33:53;;;;;;;35.70;24.83;;;5.40;99.90;;;;;;4990175;28;20500;-78
2021/12/17 04:36:26;;;;;;;36.90;23.98;;;5.40;99.90;;;;;;5002275;28;20105;-77
2021/12/17 04:38:54;;;;;;;35.80;24.45;;;5.40;99.90;;;;;;5000231;28;20038;-76
2021/12/17 04:46:34;;;;;;;40.60;25.85;;;5.40;99.90;;;;;;4993519;28;20045;-78
2021/12/17 04:57:27;;;;;;;39.13;24.52;;;5.50;99.90;;;;;;4991271;28;20676;-78
2021/12/17 04:59:58;;;;;;;41.35;28.95;;;5.40;99.90;;;;;;4991107;28;20037;-77
2021/12/17 05:02:25;;;;;;;40.20;27.13;;;5.50;99.90;;;;;;4991957;28;20039;-79
2021/12/17 05:05:05;;;;;;;45.67;26.90;;;5.50;99.90;;;;;;4991185;28;20026;-78
2021/12/17 05:07:32;;;;;;;42.83;26.15;;;5.60;99.90;;;;;;4993870;28;20378;-77
2021/12/17 05:10:17;;;;;;;36.58;26.20;;;5.60;99.90;;;;;;4998575;28;20098;-78
2021/12/17 05:18:17;;;;;;;38.72;25.98;;;5.70;99.90;;;;;;4995357;28;20026;-77
2021/12/17 05:20:53;;;;;;;40.17;26.27;;;5.70;99.90;;;;;;4996313;28;20388;-77
2021/12/17 05:23:25;;;;;;;36.70;24.45;;;5.70;99.90;;;;;;4995575;28;20039;-78
2021/12/17 05:25:52;;;;;;;39.88;25.13;;;5.70;99.90;;;;;;4994766;28;20038;-77
2021/12/17 05:28:19;;;;;;;38.90;25.83;;;5.70;99.90;;;;;;4996064;28;20038;-79
2021/12/17 05:30:47;;;;;;;35.40;24.23;;;5.70;99.90;;;;;;5011656;28;20035;-77
2021/12/17 05:33:15;;;;;;;40.58;25.42;;;5.70;99.90;;;;;;4995252;28;20026;-80
2021/12/17 05:35:41;;;;;;;42.15;25.92;;;5.70;99.90;;;;;;4996049;28;20030;-80
2021/12/17 05:38:09;;;;;;;41.42;25.98;;;5.80;99.90;;;;;;4995057;28;20491;-76
2021/12/17 05:40:37;;;;;;;39.60;24.63;;;5.80;99.90;;;;;;4994474;28;20031;-76
2021/12/17 05:43:05;;;;;;;38.10;23.50;;;5.80;99.90;;;;;;4994421;28;20449;-76
2021/12/17 05:45:47;;;;;;;40.63;26.13;;;5.80;99.90;;;;;;4994128;28;20030;-77
2021/12/17 05:48:15;;;;;;;38.30;24.95;;;5.80;99.90;;;;;;4994109;28;20117;-78
2021/12/17 05:50:42;;;;;;;42.60;24.55;;;5.80;99.90;;;;;;4994250;28;20023;-77
2021/12/17 05:53:08;;;;;;;36.97;25.27;;;5.80;99.90;;;;;;4995684;28;20459;-78
2021/12/17 05:55:36;;;;;;;37.60;23.98;;;5.80;99.90;;;;;;4995828;28;20026;-77
2021/12/17 05:58:07;;;;;;;39.47;26.02;;;5.80;99.90;;;;;;4994322;28;20115;-78
2021/12/17 06:00:34;;;;;;;39.03;27.08;;;5.80;99.90;;;;;;4994023;28;20503;-77
2021/12/17 06:03:20;;;;;;;37.58;25.80;;;5.80;99.90;;;;;;4995529;28;20077;-77
2021/12/17 06:06:04;;;;;;;40.67;26.58;;;5.80;99.90;;;;;;4994140;28;20085;-78
2021/12/17 06:08:30;;;;;;;36.97;23.92;;;5.80;99.90;;;;;;4993547;28;20109;-78
2021/12/17 06:10:57;;;;;;;40.75;26.42;;;5.80;99.90;;;;;;4994044;28;20122;-77
2021/12/17 06:13:24;;;;;;;37.33;24.90;;;5.80;99.90;;;;;;4993745;28;20029;-78
2021/12/17 06:15:50;;;;;;;36.25;24.08;;;5.80;99.90;;;;;;4993954;28;20121;-77
2021/12/17 06:18:17;;;;;;;37.83;23.35;;;5.90;99.90;;;;;;4993345;28;20026;-77
2021/12/17 06:20:43;;;;;;;35.05;22.92;;;5.80;99.90;;;;;;4993592;28;20022;-77
2021/12/17 06:23:10;;;;;;;32.17;21.92;;;5.90;99.90;;;;;;5006807;28;20035;-73
2021/12/17 06:25:36;;;;;;;32.88;20.90;;;5.90;99.90;;;;;;4998792;28;20032;-77
2021/12/17 06:28:02;;;;;;;33.08;21.50;;;5.90;99.90;;;;;;4994971;28;20018;-77
2021/12/17 06:30:28;;;;;;;37.78;24.25;;;5.90;99.90;;;;;;4993952;28;20125;-77
2021/12/17 06:32:54;;;;;;;36.85;24.25;;;5.90;99.90;;;;;;4993717;28;20448;-78
2021/12/17 06:35:25;;;;;;;38.22;24.30;;;6.00;99.90;;;;;;4993467;28;20046;-78
2021/12/17 06:37:53;;;;;;;34.40;22.15;;;6.00;99.90;;;;;;4992732;28;20030;-78
2021/12/17 06:40:25;;;;;;;35.87;23.07;;;6.00;99.90;;;;;;4993252;28;20097;-77
2021/12/17 06:42:52;;;;;;;37.83;24.13;;;6.00;99.90;;;;;;4992796;28;20452;-79
2021/12/17 06:45:35;;;;;;;38.67;26.95;;;6.00;99.90;;;;;;4993063;28;20033;-78
2021/12/17 06:48:04;;;;;;;40.95;25.08;;;6.00;99.90;;;;;;5009514;28;20058;-78
2021/12/17 06:59:40;;;;;;;32.90;21.15;;;6.10;99.90;;;;;;4941598;29;20090;-78
2021/12/17 07:06:02;;;;;;;35.42;22.52;;;6.10;99.90;;;;;;4941643;28;20130;-79
2021/12/17 07:09:41;;;;;;;27.90;18.70;;;6.10;99.90;;;;;;4935697;29;20078;-78
2021/12/17 07:22:44;;;;;;;33.22;21.50;;;6.20;99.90;;;;;;4938545;29;20113;-79
2021/12/17 07:33:46;;;;;;;32.78;19.95;;;6.20;99.90;;;;;;4889238;29;20048;-77
2021/12/17 07:39:19;;;;;;;29.10;19.23;;;6.30;99.90;;;;;;4861639;29;20044;-78
2021/12/17 07:42:14;;;;;;;28.98;17.85;;;6.30;99.90;;;;;;4873684;29;20405;-78
2021/12/17 07:45:01;;;;;;;25.63;17.25;;;6.30;99.90;;;;;;4861599;29;20546;-78
2021/12/17 07:47:38;;;;;;;29.27;18.05;;;6.30;99.90;;;;;;4852832;29;20047;-78
2021/12/17 07:50:25;;;;;;;28.63;17.48;;;6.30;99.90;;;;;;4867114;29;20060;-78
2021/12/17 07:53:15;;;;;;;32.35;18.45;;;6.30;99.90;;;;;;4851919;29;20038;-78
2021/12/17 07:56:10;;;;;;;26.47;15.73;;;6.30;99.90;;;;;;4870942;29;20048;-76
2021/12/17 07:58:39;;;;;;;25.23;16.67;;;6.20;99.90;;;;;;4863070;29;20344;-79
2021/12/17 08:01:08;;;;;;;27.65;16.30;;;6.30;99.90;;;;;;4851972;29;20044;-77
2021/12/17 08:03:34;;;;;;;26.48;16.38;;;6.20;99.90;;;;;;4862118;29;20484;-77
2021/12/17 08:06:05;;;;;;;29.63;18.90;;;6.20;99.90;;;;;;4865260;29;20040;-78
2021/12/17 08:08:42;;;;;;;29.38;18.73;;;6.20;99.90;;;;;;4873702;29;20094;-78
2021/12/17 08:11:19;;;;;;;31.05;20.52;;;6.30;99.90;;;;;;4919308;29;20521;-77
2021/12/17 08:13:46;;;;;;;29.38;18.73;;;6.30;99.90;;;;;;4927222;29;20032;-78
2021/12/17 08:32:05;;;;;;;19.48;12.50;;;6.40;99.90;;;;;;4990754;28;20034;-75
2021/12/17 08:34:40;;;;;;;20.40;12.25;;;6.40;99.90;;;;;;5006769;28;20058;-78
2021/12/17 08:37:09;;;;;;;24.33;14.32;;;6.40;99.90;;;;;;4988816;28;20026;-77
2021/12/17 08:39:34;;;;;;;24.58;14.73;;;6.50;99.90;;;;;;4990277;28;20026;-76
2021/12/17 08:42:20;;;;;;;24.23;12.95;;;6.60;99.90;;;;;;4994606;28;20081;-77
2021/12/17 08:44:46;;;;;;;26.52;16.15;;;6.60;99.90;;;;;;5010429;28;20065;-78
2021/12/17 08:47:31;;;;;;;29.33;16.23;;;6.60;99.90;;;;;;4995575;28;20118;-75
2021/12/17 08:50:04;;;;;;;21.10;12.18;;;6.70;99.90;;;;;;4993554;28;20476;-77
2021/12/17 08:52:30;;;;;;;24.40;15.57;;;6.70;99.90;;;;;;5008611;28;20037;-78
2021/12/17 08:54:56;;;;;;;21.95;11.63;;;6.70;99.90;;;;;;4994627;28;20026;-77
2021/12/17 08:57:22;;;;;;;15.40;9.40;;;6.70;99.90;;;;;;4993614;28;20042;-77
2021/12/17 08:59:48;;;;;;;26.27;11.38;;;6.70;99.90;;;;;;4995592;28;20594;-75
2021/12/17 09:02:25;;;;;;;25.75;15.63;;;6.60;99.90;;;;;;4993340;28;20039;-78
2021/12/17 09:05:09;;;;;;;28.42;17.52;;;6.70;99.90;;;;;;4992616;28;20653;-77
2021/12/17 09:07:42;;;;;;;27.95;16.00;;;6.70;99.90;;;;;;5010248;28;20089;-78
2021/12/17 09:10:28;;;;;;;28.58;15.48;;;6.60;99.90;;;;;;4991452;28;20254;-78
2021/12/17 09:12:55;;;;;;;28.50;16.20;;;6.60;99.90;;;;;;4994136;28;20400;-77
2021/12/17 09:15:21;;;;;;;25.35;14.98;;;6.50;99.90;;;;;;4994065;28;20041;-78
2021/12/17 09:18:10;;;;;;;22.98;14.48;;;6.40;99.90;;;;;;4992311;28;20076;-78
2021/12/17 09:20:46;;;;;;;23.80;13.90;;;6.50;99.90;;;;;;5008884;28;20030;-77
2021/12/17 09:23:14;;;;;;;23.30;14.43;;;6.40;99.90;;;;;;4993669;28;20045;-78
2021/12/17 09:25:40;;;;;;;23.25;14.90;;;6.40;99.90;;;;;;4993827;28;20033;-76
2021/12/17 09:28:14;;;;;;;22.15;12.82;;;6.40;99.90;;;;;;4994164;28;20031;-77
2021/12/17 09:30:58;;;;;;;22.30;13.85;;;6.40;99.90;;;;;;4995160;28;20026;-77
2021/12/17 09:33:25;;;;;;;24.58;12.55;;;6.40;99.90;;;;;;4995725;28;20057;-77
2021/12/17 09:35:52;;;;;;;28.77;14.48;;;6.40;99.90;;;;;;4995211;28;20113;-78
2021/12/17 09:38:18;;;;;;;23.13;12.25;;;6.40;99.90;;;;;;4993051;28;20510;-75
2021/12/17 09:40:44;;;;;;;23.35;14.85;;;6.40;99.90;;;;;;4994603;28;20030;-74
2021/12/17 09:43:11;;;;;;;23.80;14.52;;;6.40;99.90;;;;;;4994718;28;20037;-74
2021/12/17 09:45:37;;;;;;;23.83;13.25;;;6.40;99.90;;;;;;4994940;28;20044;-77
2021/12/17 09:48:04;;;;;;;20.77;12.40;;;6.40;99.90;;;;;;4995264;28;20025;-77
2021/12/17 09:50:30;;;;;;;23.60;13.60;;;6.40;99.90;;;;;;4995517;28;20026;-77
2021/12/17 09:52:56;;;;;;;24.40;13.95;;;6.40;99.90;;;;;;4994171;28;20034;-77
2021/12/17 09:55:24;;;;;;;19.58;10.63;;;6.40;99.90;;;;;;4995032;28;20122;-77
2021/12/17 09:57:49;;;;;;;20.02;9.57;;;6.50;99.90;;;;;;4994999;28;20069;-78
2021/12/17 10:00:20;;;;;;;19.40;11.05;;;6.50;99.90;;;;;;4995138;28;20143;-78
2021/12/17 10:02:48;;;;;;;15.82;9.73;;;6.50;99.90;;;;;;4994842;28;20125;-77
2021/12/17 10:05:28;;;;;;;15.63;7.82;;;6.60;99.90;;;;;;4995120;28;20023;-77
2021/12/17 10:07:57;;;;;;;17.17;9.15;;;6.60;99.90;;;;;;4994530;28;20108;-77
2021/12/17 10:10:45;;;;;;;18.20;10.27;;;6.60;99.90;;;;;;4994499;28;20112;-78
2021/12/17 10:13:20;;;;;;;14.43;7.57;;;6.60;99.90;;;;;;4979934;28;20030;-78
2021/12/17 10:15:50;;;;;;;13.57;7.45;;;6.60;99.90;;;;;;4994908;28;20035;-78
2021/12/17 10:18:17;;;;;;;19.75;10.60;;;6.60;99.90;;;;;;4993943;28;20030;-78
2021/12/17 10:20:58;;;;;;;21.75;11.60;;;6.60;99.90;;;;;;4994130;28;20350;-77
2021/12/17 10:23:26;;;;;;;22.88;12.63;;;6.60;99.90;;;;;;4993845;28;20078;-77
2021/12/17 10:25:52;;;;;;;25.40;13.32;;;6.50;99.90;;;;;;4993486;28;20081;-78
2021/12/17 10:28:20;;;;;;;19.38;10.63;;;6.60;99.90;;;;;;4993480;28;20066;-77
2021/12/17 10:30:48;;;;;;;15.23;8.70;;;6.60;99.90;;;;;;4993883;28;20033;-75
2021/12/17 10:33:18;;;;;;;17.30;9.80;;;6.60;99.90;;;;;;4993811;28;20034;-77
2021/12/17 10:35:48;;;;;;;24.20;12.30;;;6.60;99.90;;;;;;4994005;28;20038;-77
2021/12/17 10:38:16;;;;;;;20.02;10.18;;;6.60;99.90;;;;;;4991840;28;20022;-78
2021/12/17 10:40:51;;;;;;;16.48;9.18;;;6.60;99.90;;;;;;4993855;28;20042;-76
2021/12/17 10:43:35;;;;;;;17.65;9.57;;;6.70;99.90;;;;;;4994140;28;20038;-77
2021/12/17 10:54:13;;;;;;;18.02;9.07;;;6.70;99.90;;;;;;4993788;28;20030;-77
2021/12/17 10:56:42;;;;;;;13.05;7.53;;;6.70;99.90;;;;;;4992972;28;20110;-77
2021/12/17 10:59:13;;;;;;;18.92;8.63;;;6.70;99.90;;;;;;4992520;28;20026;-76
2021/12/17 11:01:45;;;;;;;13.65;7.97;;;6.70;99.90;;;;;;4987884;28;20035;-77
2021/12/17 11:04:19;;;;;;;15.88;8.57;;;6.70;99.90;;;;;;4986616;28;20035;-76
2021/12/17 11:07:05;;;;;;;18.58;9.07;;;6.80;99.90;;;;;;4992118;28;20432;-77
2021/12/17 11:09:35;;;;;;;20.55;10.80;;;6.90;99.90;;;;;;4989094;28;20056;-77
2021/12/17 11:12:14;;;;;;;15.85;9.23;;;6.90;99.90;;;;;;4991788;28;20060;-77
2021/12/17 11:14:41;;;;;;;21.65;12.50;;;6.90;99.90;;;;;;4991789;28;20035;-77
2021/12/17 11:17:10;;;;;;;22.48;12.77;;;6.90;99.90;;;;;;4992462;28;20524;-77
2021/12/17 11:19:36;;;;;;;25.90;12.43;;;6.90;99.90;;;;;;4993487;28;20492;-78
2021/12/17 11:22:03;;;;;;;26.60;14.30;;;6.90;99.90;;;;;;4993346;28;20038;-78
2021/12/17 11:24:32;;;;;;;13.38;7.32;;;6.90;99.90;;;;;;4992775;28;20026;-77
2021/12/17 11:26:59;;;;;;;14.23;7.20;;;6.90;99.90;;;;;;4993394;28;20404;-77
2021/12/17 11:29:26;;;;;;;22.95;12.07;;;6.90;99.90;;;;;;4990969;28;20093;-77
2021/12/17 11:31:52;;;;;;;14.95;7.75;;;6.90;99.90;;;;;;4993415;28;20229;-77
2021/12/17 11:34:18;;;;;;;17.95;9.95;;;6.90;99.90;;;;;;4993663;28;20116;-77
2021/12/17 11:36:45;;;;;;;17.77;9.60;;;6.90;99.90;;;;;;4993239;28;20114;-77
2021/12/17 11:39:26;;;;;;;19.75;8.75;;;6.90;99.90;;;;;;4992761;28;20027;-77
2021/12/17 11:41:58;;;;;;;20.08;8.52;;;7.00;99.90;;;;;;4992735;28;20125;-78
2021/12/17 11:44:38;;;;;;;14.88;7.97;;;7.00;99.90;;;;;;4992336;28;20034;-77
2021/12/17 11:47:10;;;;;;;16.02;8.30;;;7.00;99.90;;;;;;4993688;28;20385;-77
2021/12/17 11:49:48;;;;;;;14.35;8.32;;;7.00;99.90;;;;;;4993805;28;20057;-77
2021/12/17 11:52:14;;;;;;;13.07;7.28;;;7.00;99.90;;;;;;4993277;28;20035;-78
2021/12/17 11:54:40;;;;;;;17.15;9.02;;;7.10;99.90;;;;;;4992840;28;20031;-78
2021/12/17 11:57:08;;;;;;;14.20;8.25;;;7.20;99.90;;;;;;4992439;28;20042;-77
2021/12/17 11:59:38;;;;;;;17.05;8.68;;;7.10;99.90;;;;;;4993388;28;20022;-78
2021/12/17 12:02:05;;;;;;;15.18;7.95;;;7.20;99.90;;;;;;4992832;28;20428;-77
2021/12/17 12:04:34;;;;;;;14.25;7.90;;;7.10;99.90;;;;;;4992853;28;20045;-77
2021/12/17 12:07:15;;;;;;;25.85;17.13;;;7.10;99.90;;;;;;4992416;28;20026;-77
2021/12/17 12:10:03;;;;;;;30.23;21.42;;;7.10;99.90;;;;;;4973508;28;20069;-78
2021/12/17 12:12:38;;;;;;;16.65;8.95;;;7.10;99.90;;;;;;4982717;28;20077;-78
2021/12/17 12:15:23;;;;;;;18.80;11.77;;;7.10;99.90;;;;;;4992712;28;20062;-78
2021/12/17 12:18:03;;;;;;;15.30;7.93;;;7.10;99.90;;;;;;4992251;28;20026;-77
2021/12/17 12:20:50;;;;;;;17.77;9.32;;;7.00;99.90;;;;;;4992990;28;20489;-77
2021/12/17 12:23:28;;;;;;;19.02;10.25;;;7.00;99.90;;;;;;4992620;28;20400;-77
2021/12/17 12:26:15;;;;;;;16.05;10.07;;;7.00;99.90;;;;;;4992984;28;20088;-78
2021/12/17 12:28:49;;;;;;;18.02;10.02;;;7.00;99.90;;;;;;4992404;28;20064;-76
2021/12/17 12:31:18;;;;;;;19.23;9.27;;;6.90;99.90;;;;;;4992681;28;20069;-77
2021/12/17 12:34:06;;;;;;;20.10;10.45;;;6.90;99.90;;;;;;4992684;28;20057;-77
2021/12/17 12:36:53;;;;;;;19.17;9.13;;;6.90;99.90;;;;;;4992624;28;20089;-77
2021/12/17 12:39:31;;;;;;;17.10;9.25;;;6.90;99.90;;;;;;4992513;28;20054;-77
2021/12/17 12:42:20;;;;;;;17.55;9.35;;;7.00;99.90;;;;;;4992437;28;20069;-77
2021/12/17 12:44:46;;;;;;;19.55;9.23;;;7.00;99.90;;;;;;4992067;28;20110;-77
2021/12/17 12:47:29;;;;;;;14.45;8.50;;;7.00;99.90;;;;;;4986577;28;20114;-77
2021/12/17 12:50:04;;;;;;;18.73;9.25;;;7.00;99.90;;;;;;5005812;28;20044;-78
2021/12/17 12:52:30;;;;;;;18.45;9.10;;;7.00;99.90;;;;;;4978512;28;20022;-78
2021/12/17 12:55:03;;;;;;;22.98;9.65;;;7.00;99.90;;;;;;4992052;28;20487;-77
2021/12/17 12:57:36;;;;;;;22.65;9.38;;;7.10;99.90;;;;;;4993149;28;20427;-77
2021/12/17 13:00:12;;;;;;;20.65;9.43;;;7.00;99.90;;;;;;4991823;28;20030;-76
2021/12/17 13:02:40;;;;;;;21.10;10.00;;;7.00;99.90;;;;;;4991527;28;20041;-77
2021/12/17 13:05:07;;;;;;;16.23;9.30;;;7.00;99.90;;;;;;4991530;28;20531;-75
2021/12/17 13:07:35;;;;;;;19.00;9.73;;;7.10;99.90;;;;;;4994276;28;20034;-77
2021/12/17 13:10:14;;;;;;;17.05;9.45;;;7.00;99.90;;;;;;4992482;28;20030;-77
2021/12/17 13:12:41;;;;;;;21.17;10.68;;;7.00;99.90;;;;;;4990183;28;20037;-75
2021/12/17 13:15:30;;;;;;;18.15;8.82;;;7.00;99.90;;;;;;4992502;28;20069;-76
2021/12/17 13:23:47;;;;;;;21.50;8.80;;;7.00;99.90;;;;;;4983359;28;20046;-74
2021/12/17 13:26:13;;;;;;;17.58;8.15;;;6.90;99.90;;;;;;4973566;28;20500;-77
2021/12/17 13:29:10;;;;;;;18.10;8.68;;;6.90;99.90;;;;;;4975825;28;20023;-75
2021/12/17 13:31:43;;;;;;;19.38;9.30;;;6.90;99.90;;;;;;4995114;28;20397;-77
2021/12/17 13:34:31;;;;;;;19.40;10.65;;;6.90;99.90;;;;;;4992772;28;20076;-76
2021/12/17 13:37:18;;;;;;;17.60;9.18;;;6.90;99.90;;;;;;4993924;28;20038;-73
2021/12/17 13:40:07;;;;;;;19.63;10.93;;;6.90;99.90;;;;;;4995864;28;20077;-76
2021/12/17 13:42:35;;;;;;;23.17;11.38;;;6.90;99.90;;;;;;4996163;28;20060;-76
2021/12/17 13:45:10;;;;;;;21.98;9.18;;;6.90;99.90;;;;;;4995778;28;20431;-77
2021/12/17 13:47:47;;;;;;;21.73;11.38;;;6.90;99.90;;;;;;4995722;28;20026;-74
2021/12/17 13:50:22;;;;;;;25.55;10.73;;;6.80;99.90;;;;;;4995922;28;20113;-77
2021/12/17 13:52:48;;;;;;;21.70;11.55;;;6.80;99.90;;;;;;4990648;28;20035;-76
2021/12/17 13:55:18;;;;;;;25.25;10.50;;;6.80;99.90;;;;;;4988890;28;20025;-77
2021/12/17 13:57:45;;;;;;;25.30;12.40;;;6.80;99.90;;;;;;4995651;28;20456;-77
2021/12/17 14:00:14;;;;;;;24.05;11.82;;;6.80;99.90;;;;;;4994852;28;20057;-77
2021/12/17 14:02:43;;;;;;;24.27;11.02;;;6.80;99.90;;;;;;4995302;28;20034;-77
2021/12/17 14:05:14;;;;;;;28.23;12.90;;;6.80;99.90;;;;;;4994777;28;20062;-75
2021/12/17 14:07:40;;;;;;;26.83;14.55;;;6.80;99.90;;;;;;4988127;28;20043;-77
2021/12/17 14:10:11;;;;;;;22.02;11.63;;;6.80;99.90;;;;;;4991857;28;20532;-79
2021/12/17 14:12:39;;;;;;;18.33;9.48;;;6.80;99.90;;;;;;4990283;28;20362;-77
2021/12/17 14:15:09;;;;;;;21.48;9.98;;;6.80;99.90;;;;;;4987382;28;20026;-76
2021/12/17 14:17:39;;;;;;;24.17;12.27;;;6.80;99.90;;;;;;4993181;28;20506;-76
2021/12/17 14:20:14;;;;;;;23.00;12.20;;;6.80;99.90;;;;;;4983822;28;20049;-77
2021/12/17 14:22:46;;;;;;;18.80;10.75;;;6.80;99.90;;;;;;4994284;28;20058;-78
2021/12/17 14:25:28;;;;;;;29.98;14.68;;;6.80;99.90;;;;;;4995011;28;20026;-79
2021/12/17 14:28:01;;;;;;;29.23;14.43;;;6.80;99.90;;;;;;4995257;28;20495;-79
2021/12/17 14:30:34;;;;;;;36.15;17.88;;;6.70;99.90;;;;;;4994159;28;20026;-78
2021/12/17 14:33:14;;;;;;;38.83;18.33;;;6.70;99.90;;;;;;4994395;28;20432;-76
2021/12/17 14:35:44;;;;;;;29.58;17.58;;;6.70;99.90;;;;;;4993700;28;20037;-80
2021/12/17 14:38:10;;;;;;;39.80;21.05;;;6.70;99.90;;;;;;4993010;28;20373;-81
2021/12/17 14:40:50;;;;;;;39.28;19.10;;;6.70;99.90;;;;;;4993733;28;20030;-78
2021/12/17 14:43:26;;;;;;;40.78;20.25;;;6.70;99.90;;;;;;4973672;28;20043;-77
2021/12/17 14:46:08;;;;;;;30.63;15.68;;;6.70;99.90;;;;;;4986361;28;20077;-78
2021/12/17 14:48:41;;;;;;;25.13;11.65;;;6.60;99.90;;;;;;4992652;28;20023;-77
2021/12/17 15:04:43;;;;;;;24.70;13.35;;;6.60;99.90;;;;;;4993279;28;20033;-75
2021/12/17 15:07:09;;;;;;;31.88;19.27;;;6.50;99.90;;;;;;4993390;28;20034;-75
2021/12/17 15:09:40;;;;;;;30.33;17.60;;;6.50;99.90;;;;;;4993375;28;20050;-75
2021/12/17 15:12:40;;;;;;;34.00;17.10;;;6.50;99.90;;;;;;4992900;28;20034;-75
2021/12/17 15:15:04;;;;;;;27.42;14.18;;;6.50;99.90;;;;;;5001062;28;20037;-74
2021/12/17 15:17:32;;;;;;;23.73;12.70;;;6.50;99.90;;;;;;4993948;28;20034;-74
2021/12/17 15:19:58;;;;;;;25.83;13.43;;;6.40;99.90;;;;;;4993507;28;20047;-75
2021/12/17 15:22:24;;;;;;;27.10;14.25;;;6.50;99.90;;;;;;4993066;28;20097;-74
2021/12/17 15:24:50;;;;;;;29.88;15.35;;;6.40;99.90;;;;;;4991604;28;20029;-75
2021/12/17 15:27:16;;;;;;;32.17;16.70;;;6.40;99.90;;;;;;4992736;28;20388;-74
2021/12/17 15:29:43;;;;;;;29.27;15.75;;;6.40;99.90;;;;;;4992824;28;20026;-72
2021/12/17 15:32:09;;;;;;;33.03;18.17;;;6.40;99.90;;;;;;4992803;28;20117;-74
2021/12/17 15:34:35;;;;;;;27.55;16.17;;;6.30;99.90;;;;;;4992518;28;20029;-75
2021/12/17 15:37:01;;;;;;;32.30;18.23;;;6.20;99.90;;;;;;4992773;28;20464;-75
2021/12/17 15:39:27;;;;;;;32.20;18.42;;;6.20;99.90;;;;;;4992643;28;20600;-74
2021/12/17 15:41:54;;;;;;;30.40;17.02;;;6.20;99.90;;;;;;4992279;28;20489;-75
2021/12/17 15:44:20;;;;;;;32.97;17.88;;;6.10;99.90;;;;;;4992526;28;20026;-74
2021/12/17 15:46:46;;;;;;;30.63;15.80;;;6.10;99.90;;;;;;4992585;28;20045;-75
2021/12/17 15:49:12;;;;;;;29.15;15.25;;;6.10;99.90;;;;;;4992242;28;20477;-74
2021/12/17 15:51:38;;;;;;;24.83;13.93;;;6.10;99.90;;;;;;4992312;28;20029;-75
2021/12/17 15:54:05;;;;;;;29.00;14.07;;;6.10;99.90;;;;;;4992712;28;20026;-75
2021/12/17 15:56:32;;;;;;;28.00;15.68;;;6.10;99.90;;;;;;4991882;28;20022;-75
2021/12/17 15:58:59;;;;;;;29.50;15.50;;;6.10;99.90;;;;;;4991533;28;20473;-75
2021/12/17 16:01:25;;;;;;;28.02;15.18;;;6.10;99.90;;;;;;4992427;28;20101;-75
2021/12/17 16:03:51;;;;;;;22.92;12.80;;;6.10;99.90;;;;;;4992788;28;20178;-74
2021/12/17 16:06:17;;;;;;;23.88;13.05;;;6.10;99.90;;;;;;4992332;28;20032;-74
2021/12/17 16:08:47;;;;;;;44.20;18.70;;;6.00;99.90;;;;;;4991883;28;20122;-75
2021/12/17 16:11:49;;;;;;;47.28;27.15;;;6.10;99.90;;;;;;4992313;28;20026;-74
2021/12/17 16:22:17;;;;;;;28.75;16.75;;;6.00;99.90;;;;;;4992341;28;20046;-76
2021/12/17 16:24:43;;;;;;;28.80;15.93;;;6.00;99.90;;;;;;4992131;28;20018;-73